createdAt,value
2023-03-17T00:03:01.126Z,3.70
2023-03-17T00:07:08.523Z,3.70
2023-03-17T00:11:13.757Z,3.70
2023-03-17T00:15:20.613Z,3.60
2023-03-17T00:19:29.801Z,3.60
2023-03-17T00:23:35.378Z,3.50
2023-03-17T00:27:39.622Z,3.50
2023-03-17T00:31:44.715Z,3.50
2023-03-17T00:35:50.095Z,3.50
2023-03-17T00:39:54.920Z,3.40
2023-03-17T00:43:58.645Z,3.40
2023-03-17T00:48:02.755Z,3.40
2023-03-17T00:52:07.349Z,3.40
2023-03-17T00:56:15.723Z,3.40
2023-03-17T01:00:23.078Z,3.40
2023-03-17T01:04:28.774Z,3.40
2023-03-17T01:08:32.788Z,3.40
2023-03-17T01:12:41.023Z,3.30
2023-03-17T01:16:45.823Z,3.20
2023-03-17T01:20:50.596Z,3.20
2023-03-17T01:24:54.902Z,3.20
2023-03-17T01:29:00.185Z,3.30
2023-03-17T01:33:03.218Z,3.30
2023-03-17T01:37:09.468Z,3.30
2023-03-17T01:41:12.856Z,3.30
2023-03-17T01:45:53.142Z,3.30
2023-03-17T01:50:00.637Z,3.40
2023-03-17T01:54:08.505Z,3.50
2023-03-17T01:58:12.268Z,3.50
2023-03-17T02:02:21.460Z,3.50
2023-03-17T02:06:27.493Z,3.50
2023-03-17T02:10:32.557Z,3.50
2023-03-17T02:14:36.806Z,3.50
2023-03-17T02:18:40.090Z,3.40
2023-03-17T02:22:45.135Z,3.40
2023-03-17T02:26:50.678Z,3.30
2023-03-17T02:30:55.913Z,3.30
2023-03-17T02:34:58.982Z,3.30
2023-03-17T02:39:05.256Z,3.30
2023-03-17T02:43:11.370Z,3.20
2023-03-17T02:47:17.935Z,3.20
2023-03-17T02:51:21.145Z,3.20
2023-03-17T02:55:26.500Z,3.20
2023-03-17T02:59:29.872Z,3.20
2023-03-17T03:03:33.123Z,3.10
2023-03-17T03:07:37.821Z,3.10
2023-03-17T03:11:43.024Z,3.10
2023-03-17T03:15:51.550Z,3.10
2023-03-17T03:19:55.440Z,3.10
2023-03-17T03:23:58.536Z,3.10
2023-03-17T03:28:03.152Z,3.20
2023-03-17T03:32:06.855Z,3.20
2023-03-17T03:36:14.046Z,3.30
2023-03-17T03:40:19.665Z,3.30
2023-03-17T03:44:27.064Z,3.30
2023-03-17T03:48:33.401Z,3.30
2023-03-17T03:52:36.627Z,3.30
2023-03-17T03:56:39.728Z,3.30
2023-03-17T04:00:55.150Z,3.30
2023-03-17T04:04:58.250Z,3.30
2023-03-17T04:09:05.962Z,3.30
2023-03-17T04:13:19.106Z,3.20
2023-03-17T04:17:24.719Z,3.20
2023-03-17T04:21:27.773Z,3.20
2023-03-17T04:25:31.298Z,3.20
2023-03-17T04:29:36.267Z,3.30
2023-03-17T04:33:40.891Z,3.30
2023-03-17T04:37:44.510Z,3.40
2023-03-17T04:41:48.864Z,3.50
2023-03-17T04:45:52.240Z,3.60
2023-03-17T04:50:00.609Z,3.60
2023-03-17T04:54:03.886Z,3.60
2023-03-17T04:58:07.014Z,3.60
2023-03-17T05:02:10.482Z,3.60
2023-03-17T05:06:18.381Z,3.70
2023-03-17T05:10:21.662Z,3.60
2023-03-17T05:14:24.667Z,3.50
2023-03-17T05:18:27.825Z,3.50
2023-03-17T05:22:34.736Z,3.40
2023-03-17T05:26:37.873Z,3.40
2023-03-17T05:30:43.855Z,3.40
2023-03-17T05:34:49.466Z,3.40
2023-03-17T05:38:53.867Z,3.40
2023-03-17T05:42:56.970Z,3.30
2023-03-17T05:47:01.012Z,3.40
2023-03-17T05:51:06.041Z,3.50
2023-03-17T05:55:12.551Z,3.50
2023-03-17T05:59:17.943Z,3.60
2023-03-17T06:03:21.507Z,3.70
2023-03-17T06:07:38.191Z,3.70
2023-03-17T06:11:53.046Z,3.70
2023-03-17T06:15:58.637Z,3.80
2023-03-17T06:20:02.007Z,3.80
2023-03-17T06:24:28.159Z,3.90
2023-03-17T06:28:37.723Z,3.90
2023-03-17T06:32:44.991Z,4.00
2023-03-17T06:36:50.331Z,4.00
2023-03-17T06:40:54.492Z,4.00
2023-03-17T06:44:58.873Z,4.10
2023-03-17T06:49:03.447Z,4.20
2023-03-17T06:53:07.346Z,4.40
2023-03-17T06:57:10.727Z,4.60
2023-03-17T07:01:15.724Z,4.70
2023-03-17T07:05:22.211Z,4.90
2023-03-17T07:09:25.295Z,5.10
2023-03-17T07:13:28.450Z,5.30
2023-03-17T07:17:33.841Z,5.40
2023-03-17T07:21:37.028Z,5.60
2023-03-17T07:25:43.678Z,5.70
2023-03-17T07:29:49.858Z,5.80
2023-03-17T07:34:01.273Z,5.90
2023-03-17T07:38:07.940Z,6.10
2023-03-17T07:42:14.884Z,6.20
2023-03-17T07:46:20.905Z,6.30
2023-03-17T07:50:25.430Z,6.40
2023-03-17T07:54:32.231Z,6.50
2023-03-17T07:58:35.921Z,6.70
2023-03-17T08:02:41.137Z,6.80
2023-03-17T08:06:48.501Z,7.00
2023-03-17T08:10:51.831Z,7.20
2023-03-17T08:14:55.463Z,7.50
2023-03-17T08:19:00.692Z,7.70
2023-03-17T08:23:05.163Z,8.00
2023-03-17T08:27:08.790Z,8.20
2023-03-17T08:31:19.460Z,8.40
2023-03-17T08:35:22.611Z,8.50
2023-03-17T08:39:29.518Z,8.70
2023-03-17T08:43:32.747Z,8.90
2023-03-17T08:47:38.681Z,9.10
2023-03-17T08:51:44.596Z,9.30
2023-03-17T08:55:49.308Z,9.50
2023-03-17T08:59:55.699Z,9.80
2023-03-17T09:03:59.176Z,10.20
2023-03-17T09:08:03.553Z,10.60
2023-03-17T09:12:09.491Z,11.00
2023-03-17T09:16:12.583Z,11.70
2023-03-17T09:20:15.840Z,12.20
2023-03-17T09:24:19.287Z,12.60
2023-03-17T09:28:24.659Z,12.80
2023-03-17T09:32:32.447Z,13.00
2023-03-17T09:36:35.988Z,13.40
2023-03-17T09:40:46.861Z,13.80
2023-03-17T09:45:16.042Z,14.30
2023-03-17T09:49:29.348Z,14.80
2023-03-17T09:53:41.513Z,15.20
2023-03-17T09:57:47.343Z,15.30
2023-03-17T10:01:52.503Z,15.20
2023-03-17T10:06:10.944Z,15.20
2023-03-17T10:10:17.050Z,15.20
2023-03-17T10:14:31.971Z,15.40
2023-03-17T10:18:45.658Z,15.50
2023-03-17T10:22:54.932Z,15.30
2023-03-17T10:27:01.136Z,15.30
2023-03-17T10:31:19.686Z,15.60
2023-03-17T10:35:28.094Z,15.70
2023-03-17T10:39:33.740Z,15.90
2023-03-17T10:43:42.905Z,15.90
2023-03-17T10:47:51.124Z,16.00
2023-03-17T10:51:57.388Z,16.20
2023-03-17T10:56:09.546Z,16.00
2023-03-17T11:00:20.066Z,16.00
2023-03-17T11:04:35.846Z,16.00
2023-03-17T11:08:43.712Z,16.00
2023-03-17T11:12:50.239Z,16.10
2023-03-17T11:16:57.497Z,16.00
2023-03-17T11:21:08.699Z,15.90
2023-03-17T11:25:20.208Z,16.00
2023-03-17T11:29:36.373Z,16.10
2023-03-17T11:33:47.333Z,16.20
2023-03-17T11:38:05.483Z,16.20
2023-03-17T11:42:18.902Z,16.30
2023-03-17T11:46:28.668Z,16.70
2023-03-17T11:50:41.024Z,16.80
2023-03-17T11:54:55.957Z,16.90
2023-03-17T11:59:10.377Z,16.90
2023-03-17T12:03:23.517Z,16.80
2023-03-17T12:07:35.441Z,16.80
2023-03-17T12:11:43.391Z,16.80
2023-03-17T12:15:53.181Z,16.90
2023-03-17T12:20:09.837Z,17.00
2023-03-17T12:24:20.152Z,17.10
2023-03-17T12:28:29.884Z,17.30
2023-03-17T12:32:42.044Z,17.40
2023-03-17T12:36:45.580Z,17.50
2023-03-17T12:41:07.909Z,17.70
2023-03-17T12:45:33.371Z,17.90
2023-03-17T12:50:02.702Z,18.10
2023-03-17T12:54:06.005Z,18.10
2023-03-17T12:58:26.458Z,18.10
2023-03-17T13:02:36.880Z,18.10
2023-03-17T13:06:46.114Z,18.10
2023-03-17T13:10:52.683Z,18.00
2023-03-17T13:14:56.111Z,18.10
2023-03-17T13:19:15.923Z,18.00
2023-03-17T13:23:36.289Z,18.00
2023-03-17T13:27:45.121Z,18.10
2023-03-17T13:31:48.188Z,18.20
2023-03-17T13:36:16.773Z,18.30
2023-03-17T13:40:24.882Z,18.40
2023-03-17T13:44:47.666Z,18.70
2023-03-17T13:48:51.645Z,18.90
2023-03-17T13:52:58.660Z,19.10
2023-03-17T14:01:40.878Z,19.10
2023-03-17T14:05:47.898Z,19.20
2023-03-17T14:09:53.727Z,19.20
2023-03-17T14:14:31.600Z,19.00
2023-03-17T14:18:39.475Z,19.00
2023-03-17T14:22:45.633Z,18.90
2023-03-17T14:26:53.594Z,19.00
2023-03-17T14:31:00.546Z,19.10
2023-03-17T14:35:07.130Z,19.10
2023-03-17T14:39:25.791Z,19.20
2023-03-17T14:43:28.924Z,19.10
2023-03-17T14:47:41.703Z,19.00
2023-03-17T14:51:50.942Z,19.00
2023-03-17T14:55:56.832Z,19.00
2023-03-17T15:00:08.404Z,18.90
2023-03-17T15:04:14.532Z,18.90
2023-03-17T15:08:41.032Z,18.90
2023-03-17T15:12:46.308Z,18.90
2023-03-17T15:16:52.534Z,18.90
2023-03-17T15:20:58.410Z,19.00
2023-03-17T15:25:07.064Z,19.00
2023-03-17T15:29:11.398Z,19.00
2023-03-17T15:33:21.980Z,19.00
2023-03-17T15:37:31.947Z,19.00
2023-03-17T15:41:39.498Z,18.90
2023-03-17T15:45:46.439Z,18.80
2023-03-17T15:49:54.669Z,18.70
2023-03-17T15:54:00.341Z,18.60
2023-03-17T15:58:04.700Z,18.40
2023-03-17T16:02:25.968Z,18.20
2023-03-17T16:06:29.401Z,18.10
2023-03-17T16:10:35.169Z,18.00
2023-03-17T16:14:41.499Z,17.90
2023-03-17T16:18:47.037Z,17.70
2023-03-17T16:22:51.075Z,17.50
2023-03-17T16:26:57.304Z,17.30
2023-03-17T16:31:04.525Z,17.10
2023-03-17T16:35:16.481Z,16.90
2023-03-17T16:39:26.358Z,16.80
2023-03-17T16:43:33.039Z,16.60
2023-03-17T16:47:39.600Z,16.40
2023-03-17T16:51:43.274Z,16.10
2023-03-17T16:55:46.880Z,15.90
2023-03-17T16:59:52.708Z,15.70
2023-03-17T17:07:41.243Z,15.10
2023-03-17T17:11:44.306Z,14.90
2023-03-17T17:15:47.665Z,14.70
2023-03-17T17:19:50.913Z,14.30
2023-03-17T17:23:58.724Z,13.80
2023-03-17T17:28:07.676Z,13.20
2023-03-17T17:32:11.125Z,12.70
2023-03-17T17:36:15.777Z,12.20
2023-03-17T17:40:24.501Z,11.80
2023-03-17T17:44:30.246Z,11.40
2023-03-17T17:48:33.250Z,11.10
2023-03-17T17:52:39.051Z,10.90
2023-03-17T17:56:48.329Z,10.60
2023-03-17T18:00:52.691Z,10.30
2023-03-17T18:04:55.829Z,10.30
2023-03-17T18:08:59.316Z,10.50
2023-03-17T18:13:04.856Z,10.80
2023-03-17T18:17:10.176Z,11.00
2023-03-17T18:21:15.513Z,11.20
2023-03-17T18:25:22.190Z,11.40
2023-03-17T18:29:31.985Z,11.50
2023-03-17T18:33:37.847Z,11.40
2023-03-17T18:37:44.518Z,11.30
2023-03-17T18:41:51.209Z,11.20
2023-03-17T18:45:55.817Z,11.20
2023-03-17T18:49:59.725Z,11.30
2023-03-17T18:54:04.973Z,11.30
2023-03-17T18:58:11.551Z,11.20
2023-03-17T19:02:17.836Z,11.20
2023-03-17T19:06:23.385Z,11.20
2023-03-17T19:10:26.411Z,11.20
2023-03-17T19:14:31.098Z,11.10
2023-03-17T19:18:36.881Z,11.10
2023-03-17T19:22:43.022Z,11.20
2023-03-17T19:26:46.637Z,11.20
2023-03-17T19:30:51.989Z,11.20
2023-03-17T19:34:58.136Z,11.00
2023-03-17T19:39:05.223Z,10.80
2023-03-17T19:43:11.214Z,10.80
2023-03-17T19:47:17.645Z,10.70
2023-03-17T19:51:22.571Z,10.60
2023-03-17T19:55:26.304Z,10.50
2023-03-17T19:59:31.240Z,10.30
2023-03-17T20:03:35.300Z,10.30
2023-03-17T20:07:40.010Z,10.30
2023-03-17T20:11:43.066Z,10.10
2023-03-17T20:15:48.957Z,9.80
2023-03-17T20:19:52.058Z,9.60
2023-03-17T20:23:59.020Z,9.30
2023-03-17T20:28:02.097Z,9.10
2023-03-17T20:32:09.584Z,8.70
2023-03-17T20:36:15.062Z,8.40
2023-03-17T20:40:20.292Z,8.10
2023-03-17T20:44:24.147Z,7.80
2023-03-17T20:48:30.503Z,7.70
2023-03-17T20:52:33.808Z,7.50
2023-03-17T20:56:41.689Z,7.30
2023-03-17T21:00:45.021Z,7.20
2023-03-17T21:04:49.079Z,7.10
2023-03-17T21:08:54.329Z,7.10
2023-03-17T21:12:58.828Z,7.00
2023-03-17T21:17:03.916Z,6.80
2023-03-17T21:21:09.779Z,6.60
2023-03-17T21:25:13.497Z,6.50
2023-03-17T21:29:22.126Z,6.40
2023-03-17T21:33:25.524Z,6.30
2023-03-17T21:37:28.829Z,6.20
2023-03-17T21:41:34.951Z,6.10
2023-03-17T21:45:42.264Z,6.00
2023-03-17T21:49:45.946Z,5.90
2023-03-17T21:53:50.990Z,5.80
2023-03-17T21:57:58.702Z,5.70
2023-03-17T22:02:04.098Z,5.70
2023-03-17T22:06:08.108Z,5.70
2023-03-17T22:10:12.207Z,5.60
2023-03-17T22:14:20.028Z,5.50
2023-03-17T22:18:24.528Z,5.50
2023-03-17T22:22:30.008Z,5.60
2023-03-17T22:26:33.034Z,5.60
2023-03-17T22:30:41.291Z,5.50
2023-03-17T22:34:51.537Z,5.50
2023-03-17T22:38:59.156Z,5.30
2023-03-17T22:43:05.253Z,5.10
2023-03-17T22:47:15.458Z,5.00
2023-03-17T22:51:27.324Z,4.90
2023-03-17T22:55:39.046Z,4.80
2023-03-17T22:59:43.056Z,4.70
2023-03-17T23:03:47.177Z,4.60
2023-03-17T23:07:51.999Z,4.70
2023-03-17T23:11:55.558Z,4.80
2023-03-17T23:15:59.160Z,5.00
2023-03-17T23:20:02.281Z,5.10
2023-03-17T23:24:12.063Z,5.20
2023-03-17T23:28:18.186Z,5.10
2023-03-17T23:32:24.165Z,5.10
2023-03-17T23:36:27.566Z,5.00
2023-03-17T23:40:34.540Z,5.00
2023-03-17T23:44:40.059Z,5.00
2023-03-17T23:48:46.005Z,5.00
2023-03-17T23:52:49.522Z,5.00
2023-03-17T23:56:54.358Z,5.10
